createdAt,value
2019-01-05T00:00:56.345Z,99.85
2019-01-05T00:03:51.094Z,99.87
2019-01-05T00:06:40.255Z,99.85
2019-01-05T00:09:29.655Z,99.88
2019-01-05T00:12:18.889Z,99.86
2019-01-05T00:15:08.387Z,99.87
2019-01-05T00:20:40.634Z,99.89
2019-01-05T00:32:41.115Z,99.95
2019-01-05T00:35:26.966Z,99.89
2019-01-05T00:38:09.060Z,99.88
2019-01-05T00:52:46.984Z,99.85
2019-01-05T00:55:36.204Z,99.85
2019-01-05T00:58:25.776Z,99.89
2019-01-05T01:01:15.287Z,99.81
2019-01-05T01:04:04.527Z,99.85
2019-01-05T01:06:53.978Z,99.89
2019-01-05T01:09:43.104Z,99.91
2019-01-05T01:12:33.246Z,99.86
2019-01-05T01:15:22.663Z,99.83
2019-01-05T01:18:12.012Z,99.84
2019-01-05T01:21:01.171Z,99.85
2019-01-05T01:26:52.534Z,99.80
2019-01-05T01:29:41.841Z,99.84
2019-01-05T01:32:31.013Z,99.76
2019-01-05T01:35:20.201Z,99.75
2019-01-05T01:38:47.487Z,100.00
2019-01-05T01:41:57.782Z,100.00
2019-01-05T01:44:46.929Z,100.00
2019-01-05T02:02:48.916Z,99.95
2019-01-05T02:08:31.823Z,99.85
2019-01-05T02:17:37.774Z,99.71
2019-01-05T02:21:05.264Z,99.60
2019-01-05T02:24:32.438Z,99.48
2019-01-05T02:28:03.391Z,99.55
2019-01-05T02:31:30.781Z,99.55
2019-01-05T02:35:00.837Z,99.46
2019-01-05T02:38:29.757Z,99.52
2019-01-05T02:41:56.964Z,99.62
2019-01-05T02:45:24.478Z,99.61
2019-01-05T02:48:51.659Z,99.62
2019-01-05T02:52:15.796Z,99.65
2019-01-05T02:55:43.952Z,99.60
2019-01-05T02:59:11.443Z,99.57
2019-01-05T03:02:38.679Z,99.62
2019-01-05T03:06:06.285Z,99.59
2019-01-05T03:09:18.829Z,99.57
2019-01-05T03:12:46.408Z,99.49
2019-01-05T03:19:22.936Z,99.50
2019-01-05T03:22:50.194Z,99.43
2019-01-05T03:26:17.388Z,99.50
2019-01-05T03:29:44.571Z,99.50
2019-01-05T03:33:11.853Z,99.56
2019-01-05T03:36:39.127Z,99.48
2019-01-05T03:40:06.318Z,99.42
2019-01-05T03:43:33.047Z,99.39
2019-01-05T03:47:00.352Z,99.35
2019-01-05T03:50:27.538Z,99.29
2019-01-05T03:53:51.037Z,99.13
2019-01-05T03:57:07.459Z,99.09
2019-01-05T04:00:23.969Z,99.17
2019-01-05T04:03:40.211Z,99.23
2019-01-05T04:06:42.665Z,99.11
2019-01-05T04:10:09.880Z,99.16
2019-01-05T04:16:47.744Z,99.11
2019-01-05T04:26:36.960Z,98.90
2019-01-05T04:33:09.661Z,99.00
2019-01-05T04:36:36.804Z,99.05
2019-01-05T04:40:05.263Z,99.03
2019-01-05T04:43:32.431Z,99.12
2019-01-05T04:46:59.684Z,99.18
2019-01-05T04:50:26.946Z,99.18
2019-01-05T04:53:55.176Z,99.21
2019-01-05T04:57:22.522Z,99.17
2019-01-05T05:00:50.566Z,99.16
2019-01-05T05:04:18.135Z,99.24
2019-01-05T05:07:25.219Z,99.20
2019-01-05T05:11:02.662Z,99.18
2019-01-05T05:14:29.843Z,99.29
2019-01-05T05:17:57.135Z,99.29
2019-01-05T05:24:40.686Z,99.38
2019-01-05T05:28:07.898Z,99.40
2019-01-05T05:31:35.364Z,99.35
2019-01-05T05:35:02.561Z,99.41
2019-01-05T05:38:32.656Z,99.38
2019-01-05T05:45:09.972Z,99.52
2019-01-05T05:48:37.198Z,99.58
2019-01-05T05:55:31.823Z,99.64
2019-01-05T06:02:16.836Z,99.68
2019-01-05T06:05:47.089Z,99.67
2019-01-05T06:15:32.913Z,99.86
2019-01-05T06:18:55.284Z,99.88
2019-01-05T06:22:22.533Z,99.95
2019-01-05T06:25:49.798Z,99.99
2019-01-05T06:29:00.199Z,100.00
2019-01-05T06:32:28.571Z,99.98
2019-01-05T06:35:39.910Z,99.99
2019-01-05T06:38:43.494Z,99.97
2019-01-05T06:41:52.024Z,100.00
2019-01-05T06:45:19.252Z,100.00
2019-01-05T06:48:49.282Z,100.00
2019-01-05T06:52:16.444Z,100.00
2019-01-05T07:02:01.657Z,100.00
2019-01-05T07:05:30.439Z,100.00
2019-01-05T07:08:58.175Z,100.00
2019-01-05T07:12:25.441Z,100.00
2019-01-05T07:15:55.677Z,100.00
2019-01-05T07:19:05.992Z,100.00
2019-01-05T07:22:33.560Z,100.00
2019-01-05T07:26:00.747Z,100.00
2019-01-05T07:29:27.916Z,100.00
2019-01-05T07:32:55.148Z,100.00
2019-01-05T07:36:22.338Z,100.00
2019-01-05T07:39:49.540Z,100.00
2019-01-05T07:43:16.775Z,100.00
2019-01-05T07:50:08.367Z,100.00
2019-01-05T07:56:46.934Z,100.00
2019-01-05T08:00:14.077Z,100.00
2019-01-05T08:03:28.559Z,100.00
2019-01-05T08:06:55.764Z,100.00
2019-01-05T08:10:17.710Z,100.00
2019-01-05T08:13:45.080Z,100.00
2019-01-05T08:17:14.084Z,100.00
2019-01-05T08:20:41.292Z,100.00
2019-01-05T08:24:11.562Z,100.00
2019-01-05T08:27:38.830Z,100.00
2019-01-05T08:37:28.180Z,100.00
2019-01-05T08:40:55.365Z,100.00
2019-01-05T08:44:22.804Z,100.00
2019-01-05T08:47:49.966Z,100.00
2019-01-05T08:57:38.153Z,100.00
2019-01-05T09:01:05.583Z,100.00
2019-01-05T09:04:32.778Z,100.00
2019-01-05T09:08:00.231Z,100.00
2019-01-05T09:11:01.247Z,100.00
2019-01-05T09:14:02.438Z,100.00
2019-01-05T09:17:29.643Z,100.00
2019-01-05T09:20:49.220Z,100.00
2019-01-05T09:24:16.426Z,100.00
2019-01-05T09:27:43.761Z,100.00
2019-01-05T09:34:22.268Z,100.00
2019-01-05T09:37:49.424Z,100.00
2019-01-05T09:44:24.981Z,100.00
2019-01-05T09:47:50.018Z,100.00
2019-01-05T09:51:17.986Z,100.00
2019-01-05T09:54:45.951Z,100.00
2019-01-05T09:58:13.385Z,100.00
2019-01-05T10:04:47.657Z,100.00
2019-01-05T10:08:14.853Z,100.00
2019-01-05T10:11:17.435Z,100.00
2019-01-05T10:14:44.598Z,99.91
2019-01-05T10:24:46.531Z,99.71
2019-01-05T10:28:13.981Z,99.68
2019-01-05T10:31:38.633Z,99.57
2019-01-05T10:38:14.011Z,99.29
2019-01-05T10:41:32.823Z,99.24
2019-01-05T10:45:01.310Z,98.91
2019-01-05T10:52:05.615Z,98.45
2019-01-05T10:58:56.946Z,98.15
2019-01-05T11:02:29.696Z,97.97
2019-01-05T11:05:56.906Z,97.75
2019-01-05T11:09:24.319Z,97.56
2019-01-05T11:12:51.673Z,97.35
2019-01-05T11:16:18.862Z,96.98
2019-01-05T11:19:46.389Z,96.94
2019-01-05T11:23:13.676Z,97.22
2019-01-05T11:26:32.922Z,97.19
2019-01-05T11:30:00.103Z,97.12
2019-01-05T11:33:27.475Z,96.97
2019-01-05T11:36:54.618Z,97.07
2019-01-05T11:40:21.820Z,97.04
2019-01-05T11:43:43.862Z,96.99
2019-01-05T11:46:51.054Z,96.83
2019-01-05T11:56:56.427Z,96.60
2019-01-05T12:00:23.604Z,96.24
2019-01-05T12:03:50.869Z,96.00
2019-01-05T12:07:18.088Z,95.77
2019-01-05T12:10:45.298Z,95.79
2019-01-05T12:13:46.443Z,95.66
2019-01-05T12:17:13.598Z,95.88
2019-01-05T12:20:30.616Z,95.77
2019-01-05T12:23:57.815Z,95.83
2019-01-05T12:27:27.765Z,95.31
2019-01-05T12:30:44.657Z,95.57
2019-01-05T12:34:10.587Z,95.63
2019-01-05T12:37:37.812Z,95.52
2019-01-05T12:41:05.100Z,95.44
2019-01-05T12:44:32.266Z,95.56
2019-01-05T12:48:02.453Z,95.23
2019-01-05T12:51:27.340Z,94.67
2019-01-05T12:54:54.498Z,94.29
2019-01-05T13:01:45.154Z,94.47
2019-01-05T13:05:12.447Z,94.58
2019-01-05T13:08:39.624Z,94.55
2019-01-05T13:17:55.069Z,94.84
2019-01-05T13:21:22.602Z,94.72
2019-01-05T13:24:45.311Z,94.46
2019-01-05T13:28:13.230Z,94.24
2019-01-05T13:31:40.454Z,94.08
2019-01-05T13:38:21.311Z,94.03
2019-01-05T13:41:48.777Z,94.04
2019-01-05T13:45:15.940Z,94.12
2019-01-05T13:48:43.844Z,93.96
2019-01-05T13:52:14.217Z,93.90
2019-01-05T13:55:06.328Z,94.07
2019-01-05T13:57:56.611Z,93.93
2019-01-05T14:00:45.718Z,94.06
2019-01-05T14:03:34.927Z,94.33
2019-01-05T14:06:24.424Z,94.14
2019-01-05T14:09:13.736Z,93.95
2019-01-05T14:12:02.855Z,93.85
2019-01-05T14:15:09.392Z,93.54
2019-01-05T14:18:10.639Z,93.58
2019-01-05T14:20:59.788Z,93.38
2019-01-05T14:23:48.897Z,93.21
2019-01-05T14:29:40.608Z,93.19
2019-01-05T14:32:29.952Z,93.16
2019-01-05T14:35:19.082Z,92.98
2019-01-05T14:38:08.655Z,92.93
2019-01-05T14:40:57.950Z,92.87
2019-01-05T14:43:47.149Z,92.88
2019-01-05T14:46:36.332Z,93.23
2019-01-05T14:49:25.523Z,93.30
2019-01-05T14:52:14.747Z,93.14
2019-01-05T14:55:03.859Z,93.10
2019-01-05T14:57:54.014Z,92.47
2019-01-05T15:00:43.178Z,92.15
2019-01-05T15:03:32.559Z,91.93
2019-01-05T15:06:21.698Z,91.94
2019-01-05T15:09:12.509Z,92.30
2019-01-05T15:12:01.997Z,91.80
2019-01-05T15:14:51.171Z,91.57
2019-01-05T15:17:32.419Z,91.67
2019-01-05T15:23:38.043Z,91.15
2019-01-05T15:26:27.347Z,91.30
2019-01-05T15:29:16.490Z,91.45
2019-01-05T15:32:05.621Z,91.38
2019-01-05T15:34:54.740Z,91.12
2019-01-05T15:37:44.077Z,91.01
2019-01-05T15:40:33.300Z,90.68
2019-01-05T15:43:22.490Z,90.68
2019-01-05T15:46:11.882Z,90.92
2019-01-05T15:49:01.092Z,91.56
2019-01-05T15:51:50.551Z,91.66
2019-01-05T15:54:39.759Z,91.99
2019-01-05T15:57:28.924Z,91.80
2019-01-05T16:00:18.121Z,92.22
2019-01-05T16:03:07.254Z,92.46
2019-01-05T16:05:56.450Z,92.87
2019-01-05T16:08:45.583Z,92.86
2019-01-05T16:11:36.403Z,93.27
2019-01-05T16:14:25.571Z,93.74
2019-01-05T16:17:14.700Z,94.15
2019-01-05T16:26:06.610Z,95.16
2019-01-05T16:28:55.766Z,95.04
2019-01-05T16:31:44.941Z,95.19
2019-01-05T16:34:34.312Z,95.25
2019-01-05T16:37:23.503Z,95.40
2019-01-05T16:40:12.662Z,95.80
2019-01-05T16:43:01.806Z,95.73
2019-01-05T16:45:50.941Z,95.92
2019-01-05T16:48:40.122Z,95.68
2019-01-05T16:51:29.279Z,95.45
2019-01-05T16:54:18.442Z,95.34
2019-01-05T16:57:23.237Z,95.01
2019-01-05T17:00:13.028Z,95.02
2019-01-05T17:03:02.243Z,95.21
2019-01-05T17:05:51.368Z,94.98
2019-01-05T17:08:40.551Z,95.11
2019-01-05T17:11:29.690Z,95.95
2019-01-05T17:14:18.990Z,96.36
2019-01-05T17:17:11.037Z,96.56
2019-01-05T17:20:00.173Z,95.83
2019-01-05T17:22:41.651Z,94.49
2019-01-05T17:25:51.372Z,93.22
2019-01-05T17:28:40.816Z,92.64
2019-01-05T17:31:31.201Z,92.31
2019-01-05T17:34:21.075Z,92.65
2019-01-05T17:40:51.884Z,93.50
2019-01-05T17:46:46.174Z,93.12
2019-01-05T17:49:35.353Z,93.32
2019-01-05T17:52:24.848Z,93.23
2019-01-05T17:55:27.850Z,93.16
2019-01-05T17:58:17.035Z,93.55
2019-01-05T18:04:04.289Z,93.58
2019-01-05T18:06:54.988Z,93.69
2019-01-05T18:09:44.200Z,94.10
2019-01-05T18:12:33.795Z,94.15
2019-01-05T18:18:06.539Z,94.24
2019-01-05T18:20:55.758Z,94.60
2019-01-05T18:23:39.125Z,94.29
2019-01-05T18:26:33.711Z,94.31
2019-01-05T18:29:22.963Z,94.38
2019-01-05T18:32:12.534Z,94.76
2019-01-05T18:35:01.724Z,94.79
2019-01-05T18:37:51.259Z,94.72
2019-01-05T18:40:38.333Z,94.68
2019-01-05T18:43:27.915Z,94.64
2019-01-05T18:46:17.086Z,94.67
2019-01-05T18:49:06.568Z,94.28
2019-01-05T18:51:55.682Z,94.22
2019-01-05T18:54:56.638Z,94.47
2019-01-05T18:57:46.189Z,94.71
2019-01-05T19:00:35.388Z,94.71
2019-01-05T19:03:24.547Z,94.95
2019-01-05T19:06:14.051Z,95.19
2019-01-05T19:09:03.202Z,95.36
2019-01-05T19:11:52.514Z,95.48
2019-01-05T19:14:41.736Z,95.57
2019-01-05T19:17:30.882Z,95.42
2019-01-05T19:20:09.098Z,95.53
2019-01-05T19:22:58.345Z,95.39
2019-01-05T19:25:59.189Z,95.14
2019-01-05T19:29:00.346Z,94.52
2019-01-05T19:31:44.794Z,94.41
2019-01-05T19:34:33.968Z,94.09
2019-01-05T19:37:23.110Z,94.13
2019-01-05T19:40:12.526Z,94.06
2019-01-05T19:43:01.676Z,93.48
2019-01-05T19:45:50.791Z,92.76
2019-01-05T19:48:39.907Z,92.61
2019-01-05T19:51:29.132Z,92.58
2019-01-05T19:54:18.355Z,92.85
2019-01-05T19:57:07.476Z,92.93
2019-01-05T19:59:56.805Z,93.76
2019-01-05T20:02:41.814Z,94.62
2019-01-05T20:05:31.008Z,94.90
2019-01-05T20:08:20.152Z,94.43
2019-01-05T20:11:09.355Z,94.22
2019-01-05T20:13:58.522Z,94.29
2019-01-05T20:16:47.642Z,94.12
2019-01-05T20:19:36.862Z,94.15
2019-01-05T20:22:26.021Z,93.69
2019-01-05T20:25:15.288Z,93.42
2019-01-05T20:28:04.490Z,93.37
2019-01-05T20:30:53.748Z,92.93
2019-01-05T20:33:42.896Z,92.66
2019-01-05T20:36:32.097Z,92.18
2019-01-05T20:39:21.274Z,92.95
2019-01-05T20:42:10.355Z,92.52
2019-01-05T20:47:56.684Z,92.15
2019-01-05T20:50:45.967Z,92.92
2019-01-05T20:53:35.100Z,93.27
2019-01-05T20:56:24.621Z,93.30
2019-01-05T20:59:13.744Z,93.35
2019-01-05T21:02:02.939Z,93.91
2019-01-05T21:04:52.061Z,93.84
2019-01-05T21:07:41.265Z,93.56
2019-01-05T21:10:30.653Z,94.03
2019-01-05T21:13:19.906Z,94.21
2019-01-05T21:16:09.068Z,94.20
2019-01-05T21:18:59.386Z,94.05
2019-01-05T21:21:49.341Z,93.59
2019-01-05T21:24:38.571Z,93.70
2019-01-05T21:27:41.028Z,93.17
2019-01-05T21:30:30.456Z,93.03
2019-01-05T21:33:25.774Z,92.76
2019-01-05T21:38:57.759Z,92.75
2019-01-05T21:41:39.831Z,91.95
2019-01-05T21:44:29.000Z,91.84
2019-01-05T21:47:18.204Z,92.00
2019-01-05T21:50:07.397Z,92.17
2019-01-05T21:52:56.584Z,91.89
2019-01-05T21:55:45.800Z,92.28
2019-01-05T21:58:35.527Z,92.25
2019-01-05T22:01:24.873Z,92.18
2019-01-05T22:04:13.949Z,91.53
2019-01-05T22:06:59.436Z,90.81
2019-01-05T22:09:48.617Z,90.99
2019-01-05T22:12:37.764Z,90.77
2019-01-05T22:15:26.913Z,90.66
2019-01-05T22:18:16.140Z,90.50
2019-01-05T22:23:47.652Z,91.06
2019-01-05T22:26:36.806Z,90.84
2019-01-05T22:29:26.173Z,90.84
2019-01-05T22:32:15.374Z,90.83
2019-01-05T22:35:12.560Z,90.66
2019-01-05T22:38:01.671Z,90.68
2019-01-05T22:40:50.842Z,90.52
2019-01-05T22:43:40.017Z,91.07
2019-01-05T22:46:30.815Z,91.46
2019-01-05T22:49:20.381Z,92.17
2019-01-05T22:52:01.286Z,91.46
2019-01-05T22:54:50.506Z,92.22
2019-01-05T22:57:39.676Z,91.79
2019-01-05T23:00:29.857Z,92.16
2019-01-05T23:06:01.116Z,92.33
2019-01-05T23:11:32.637Z,91.94
2019-01-05T23:14:22.193Z,91.84
2019-01-05T23:17:11.577Z,91.76
2019-01-05T23:20:00.703Z,91.33
2019-01-05T23:22:49.873Z,90.87
2019-01-05T23:25:39.008Z,91.28
2019-01-05T23:28:28.193Z,91.95
2019-01-05T23:31:17.428Z,92.78
2019-01-05T23:34:06.743Z,92.18
2019-01-05T23:39:48.190Z,92.51
2019-01-05T23:42:37.592Z,91.94
2019-01-05T23:45:26.752Z,91.20
2019-01-05T23:48:15.872Z,90.94
2019-01-05T23:51:05.142Z,91.07
2019-01-05T23:53:54.376Z,91.31
2019-01-05T23:56:43.542Z,90.83
2019-01-05T23:59:32.705Z,90.88
